sensor_id;sensor_type;location;lat;lon;timestamp;pressure;altitude;pressure_sealevel;temperature;humidity
40708;BME280;26392;42.696;23.350;2023-08-06T00:02:17;94223.91;;;19.26;100.00
40708;BME280;26392;42.696;23.350;2023-08-06T00:04:42;94208.97;;;19.27;100.00
40708;BME280;26392;42.696;23.350;2023-08-06T00:07:08;94195.56;;;19.17;100.00
40708;BME280;26392;42.696;23.350;2023-08-06T00:09:33;94232.09;;;19.35;100.00
40708;BME280;26392;42.696;23.350;2023-08-06T00:11:59;94225.47;;;19.36;100.00
40708;BME280;26392;42.696;23.350;2023-08-06T00:14:24;94245.13;;;19.34;100.00
40708;BME280;26392;42.696;23.350;2023-08-06T00:16:49;94238.97;;;19.29;100.00
40708;BME280;26392;42.696;23.350;2023-08-06T00:19:15;94224.06;;;19.30;100.00
40708;BME280;26392;42.696;23.350;2023-08-06T00:21:40;94201.34;;;19.24;100.00
40708;BME280;26392;42.696;23.350;2023-08-06T00:24:06;94208.31;;;19.00;100.00
40708;BME280;26392;42.696;23.350;2023-08-06T00:26:31;94215.44;;;18.81;100.00
40708;BME280;26392;42.696;23.350;2023-08-06T00:28:56;94224.03;;;18.79;100.00
40708;BME280;26392;42.696;23.350;2023-08-06T00:31:22;94217.66;;;18.87;100.00
40708;BME280;26392;42.696;23.350;2023-08-06T00:33:47;94210.16;;;18.96;100.00
40708;BME280;26392;42.696;23.350;2023-08-06T00:36:12;94197.09;;;19.06;100.00
40708;BME280;26392;42.696;23.350;2023-08-06T00:38:38;94197.22;;;19.09;100.00
40708;BME280;26392;42.696;23.350;2023-08-06T00:41:03;94204.50;;;19.14;100.00
40708;BME280;26392;42.696;23.350;2023-08-06T00:43:29;94182.03;;;19.24;100.00
40708;BME280;26392;42.696;23.350;2023-08-06T00:45:54;94192.41;;;19.27;100.00
40708;BME280;26392;42.696;23.350;2023-08-06T00:48:21;94195.00;;;19.23;100.00
40708;BME280;26392;42.696;23.350;2023-08-06T00:50:46;94180.88;;;19.25;100.00
40708;BME280;26392;42.696;23.350;2023-08-06T00:53:12;94195.59;;;19.29;100.00
40708;BME280;26392;42.696;23.350;2023-08-06T00:55:38;94187.31;;;19.29;100.00
40708;BME280;26392;42.696;23.350;2023-08-06T00:58:03;94196.75;;;19.28;100.00
40708;BME280;26392;42.696;23.350;2023-08-06T01:00:30;94181.53;;;19.22;100.00
40708;BME280;26392;42.696;23.350;2023-08-06T01:02:55;94168.94;;;19.33;100.00
40708;BME280;26392;42.696;23.350;2023-08-06T01:05:22;94169.94;;;19.29;100.00
40708;BME280;26392;42.696;23.350;2023-08-06T01:08:05;94146.38;;;19.31;100.00
40708;BME280;26392;42.696;23.350;2023-08-06T01:15:54;94142.94;;;19.34;100.00
40708;BME280;26392;42.696;23.350;2023-08-06T01:18:22;94150.09;;;19.35;100.00
40708;BME280;26392;42.696;23.350;2023-08-06T01:20:48;94159.63;;;19.38;100.00
40708;BME280;26392;42.696;23.350;2023-08-06T01:23:15;94153.47;;;19.41;100.00
40708;BME280;26392;42.696;23.350;2023-08-06T01:29:30;94125.88;;;19.53;100.00
40708;BME280;26392;42.696;23.350;2023-08-06T01:31:37;94119.97;;;19.55;100.00
40708;BME280;26392;42.696;23.350;2023-08-06T01:34:07;94136.81;;;19.62;100.00
40708;BME280;26392;42.696;23.350;2023-08-06T01:36:35;94125.78;;;19.62;100.00
40708;BME280;26392;42.696;23.350;2023-08-06T01:39:00;94129.34;;;19.62;100.00
40708;BME280;26392;42.696;23.350;2023-08-06T01:41:26;94130.38;;;19.58;100.00
40708;BME280;26392;42.696;23.350;2023-08-06T01:43:51;94126.47;;;19.59;100.00
40708;BME280;26392;42.696;23.350;2023-08-06T01:46:17;94124.84;;;19.58;100.00
40708;BME280;26392;42.696;23.350;2023-08-06T01:48:42;94118.84;;;19.56;100.00
40708;BME280;26392;42.696;23.350;2023-08-06T01:51:08;94120.47;;;19.57;100.00
40708;BME280;26392;42.696;23.350;2023-08-06T01:53:34;94124.03;;;19.57;100.00
40708;BME280;26392;42.696;23.350;2023-08-06T01:55:59;94116.78;;;19.53;100.00
40708;BME280;26392;42.696;23.350;2023-08-06T01:58:25;94120.34;;;19.53;100.00
40708;BME280;26392;42.696;23.350;2023-08-06T02:00:50;94120.66;;;19.52;100.00
40708;BME280;26392;42.696;23.350;2023-08-06T02:03:16;94123.66;;;19.47;100.00
40708;BME280;26392;42.696;23.350;2023-08-06T02:05:41;94102.59;;;19.42;100.00
40708;BME280;26392;42.696;23.350;2023-08-06T02:08:07;94106.63;;;19.44;100.00
40708;BME280;26392;42.696;23.350;2023-08-06T02:10:32;94107.53;;;19.49;100.00
40708;BME280;26392;42.696;23.350;2023-08-06T02:12:58;94101.34;;;19.52;100.00
40708;BME280;26392;42.696;23.350;2023-08-06T02:15:23;94098.25;;;19.53;100.00
40708;BME280;26392;42.696;23.350;2023-08-06T02:17:49;94096.16;;;19.50;100.00
40708;BME280;26392;42.696;23.350;2023-08-06T02:20:14;94119.53;;;19.53;100.00
40708;BME280;26392;42.696;23.350;2023-08-06T02:22:40;94126.19;;;19.52;100.00
40708;BME280;26392;42.696;23.350;2023-08-06T02:25:05;94133.19;;;19.49;100.00
40708;BME280;26392;42.696;23.350;2023-08-06T02:27:31;94136.66;;;19.46;100.00
40708;BME280;26392;42.696;23.350;2023-08-06T02:29:56;94149.78;;;19.49;100.00
40708;BME280;26392;42.696;23.350;2023-08-06T02:32:21;94133.09;;;19.45;100.00
40708;BME280;26392;42.696;23.350;2023-08-06T02:34:47;94124.19;;;19.40;100.00
40708;BME280;26392;42.696;23.350;2023-08-06T02:37:12;94120.84;;;19.34;100.00
40708;BME280;26392;42.696;23.350;2023-08-06T02:39:38;94144.19;;;19.25;100.00
40708;BME280;26392;42.696;23.350;2023-08-06T02:42:07;94158.16;;;18.98;100.00
40708;BME280;26392;42.696;23.350;2023-08-06T02:44:33;94175.81;;;18.85;100.00
40708;BME280;26392;42.696;23.350;2023-08-06T02:46:59;94192.44;;;18.76;100.00
40708;BME280;26392;42.696;23.350;2023-08-06T02:49:24;94174.59;;;18.74;100.00
40708;BME280;26392;42.696;23.350;2023-08-06T02:51:50;94160.13;;;18.77;100.00
40708;BME280;26392;42.696;23.350;2023-08-06T02:54:15;94154.78;;;18.72;100.00
40708;BME280;26392;42.696;23.350;2023-08-06T02:56:43;94139.56;;;18.66;100.00
40708;BME280;26392;42.696;23.350;2023-08-06T02:59:09;94122.47;;;18.51;100.00
40708;BME280;26392;42.696;23.350;2023-08-06T03:01:35;94129.78;;;18.47;100.00
40708;BME280;26392;42.696;23.350;2023-08-06T03:04:01;94124.59;;;18.46;100.00
40708;BME280;26392;42.696;23.350;2023-08-06T03:06:27;94123.50;;;18.38;100.00
40708;BME280;26392;42.696;23.350;2023-08-06T03:08:52;94128.22;;;18.38;100.00
40708;BME280;26392;42.696;23.350;2023-08-06T03:11:18;94126.88;;;18.44;100.00
40708;BME280;26392;42.696;23.350;2023-08-06T03:13:43;94085.56;;;18.35;100.00
40708;BME280;26392;42.696;23.350;2023-08-06T03:16:08;94073.78;;;18.26;100.00
40708;BME280;26392;42.696;23.350;2023-08-06T03:18:34;94104.09;;;18.26;100.00
40708;BME280;26392;42.696;23.350;2023-08-06T03:20:59;94119.47;;;18.36;100.00
40708;BME280;26392;42.696;23.350;2023-08-06T03:23:25;94090.56;;;18.42;100.00
40708;BME280;26392;42.696;23.350;2023-08-06T03:25:50;94073.69;;;18.43;100.00
40708;BME280;26392;42.696;23.350;2023-08-06T03:28:16;94089.00;;;18.53;100.00
40708;BME280;26392;42.696;23.350;2023-08-06T03:30:41;94123.69;;;18.63;100.00
40708;BME280;26392;42.696;23.350;2023-08-06T03:33:07;94156.22;;;18.78;100.00
40708;BME280;26392;42.696;23.350;2023-08-06T03:35:32;94173.50;;;18.87;100.00
40708;BME280;26392;42.696;23.350;2023-08-06T03:37:58;94178.63;;;18.97;100.00
40708;BME280;26392;42.696;23.350;2023-08-06T03:40:23;94186.72;;;19.03;100.00
40708;BME280;26392;42.696;23.350;2023-08-06T03:42:49;94182.56;;;18.96;100.00
40708;BME280;26392;42.696;23.350;2023-08-06T03:45:14;94153.06;;;18.88;100.00
40708;BME280;26392;42.696;23.350;2023-08-06T03:47:40;94147.00;;;18.74;100.00
40708;BME280;26392;42.696;23.350;2023-08-06T03:50:05;94163.00;;;18.81;100.00
40708;BME280;26392;42.696;23.350;2023-08-06T03:52:31;94152.09;;;18.84;100.00
40708;BME280;26392;42.696;23.350;2023-08-06T03:54:56;94141.75;;;18.81;100.00
40708;BME280;26392;42.696;23.350;2023-08-06T03:57:21;94149.09;;;18.77;100.00
40708;BME280;26392;42.696;23.350;2023-08-06T03:59:47;94163.81;;;18.81;100.00
40708;BME280;26392;42.696;23.350;2023-08-06T04:02:12;94154.06;;;18.84;100.00
40708;BME280;26392;42.696;23.350;2023-08-06T04:04:37;94152.47;;;18.83;100.00
40708;BME280;26392;42.696;23.350;2023-08-06T04:07:03;94178.84;;;18.92;100.00
40708;BME280;26392;42.696;23.350;2023-08-06T04:09:29;94191.44;;;19.02;100.00
40708;BME280;26392;42.696;23.350;2023-08-06T04:11:54;94188.88;;;19.18;100.00
40708;BME280;26392;42.696;23.350;2023-08-06T04:14:20;94185.72;;;19.28;100.00
40708;BME280;26392;42.696;23.350;2023-08-06T04:16:45;94187.13;;;19.34;100.00
40708;BME280;26392;42.696;23.350;2023-08-06T04:19:11;94185.16;;;19.35;100.00
40708;BME280;26392;42.696;23.350;2023-08-06T04:21:36;94178.31;;;19.41;100.00
40708;BME280;26392;42.696;23.350;2023-08-06T04:24:02;94170.16;;;19.44;100.00
40708;BME280;26392;42.696;23.350;2023-08-06T04:26:27;94159.09;;;19.44;100.00
40708;BME280;26392;42.696;23.350;2023-08-06T04:28:52;94142.06;;;19.42;100.00
40708;BME280;26392;42.696;23.350;2023-08-06T04:31:18;94141.97;;;19.51;100.00
40708;BME280;26392;42.696;23.350;2023-08-06T04:33:43;94150.38;;;19.55;100.00
40708;BME280;26392;42.696;23.350;2023-08-06T04:36:09;94151.91;;;19.64;100.00
40708;BME280;26392;42.696;23.350;2023-08-06T04:38:34;94144.56;;;19.68;100.00
40708;BME280;26392;42.696;23.350;2023-08-06T04:41:02;94133.91;;;19.79;100.00
40708;BME280;26392;42.696;23.350;2023-08-06T04:43:28;94130.22;;;19.75;100.00
40708;BME280;26392;42.696;23.350;2023-08-06T04:45:54;94127.25;;;19.80;100.00
40708;BME280;26392;42.696;23.350;2023-08-06T04:48:20;94115.34;;;19.80;100.00
40708;BME280;26392;42.696;23.350;2023-08-06T04:50:47;94104.44;;;19.83;100.00
40708;BME280;26392;42.696;23.350;2023-08-06T04:53:12;94095.25;;;19.92;100.00
40708;BME280;26392;42.696;23.350;2023-08-06T04:55:38;94081.88;;;19.94;100.00
40708;BME280;26392;42.696;23.350;2023-08-06T04:58:03;94076.69;;;19.92;100.00
40708;BME280;26392;42.696;23.350;2023-08-06T05:00:29;94088.78;;;19.87;100.00
40708;BME280;26392;42.696;23.350;2023-08-06T05:02:54;94079.34;;;20.01;100.00
40708;BME280;26392;42.696;23.350;2023-08-06T05:05:20;94072.44;;;20.19;100.00
40708;BME280;26392;42.696;23.350;2023-08-06T05:07:49;94079.56;;;20.32;100.00
40708;BME280;26392;42.696;23.350;2023-08-06T05:10:15;94093.41;;;20.45;100.00
40708;BME280;26392;42.696;23.350;2023-08-06T05:12:40;94085.09;;;20.69;100.00
40708;BME280;26392;42.696;23.350;2023-08-06T05:15:06;94093.91;;;20.99;100.00
40708;BME280;26392;42.696;23.350;2023-08-06T05:17:32;94085.28;;;21.17;100.00
40708;BME280;26392;42.696;23.350;2023-08-06T05:19:57;94086.56;;;21.19;100.00
40708;BME280;26392;42.696;23.350;2023-08-06T05:22:23;94092.66;;;21.37;100.00
40708;BME280;26392;42.696;23.350;2023-08-06T05:24:48;94095.25;;;21.46;100.00
40708;BME280;26392;42.696;23.350;2023-08-06T05:27:14;94101.13;;;21.44;100.00
40708;BME280;26392;42.696;23.350;2023-08-06T05:29:39;94090.28;;;21.52;100.00
40708;BME280;26392;42.696;23.350;2023-08-06T05:32:05;94090.19;;;21.36;100.00
40708;BME280;26392;42.696;23.350;2023-08-06T05:34:30;94086.69;;;21.23;100.00
40708;BME280;26392;42.696;23.350;2023-08-06T05:36:56;94093.03;;;21.11;100.00
40708;BME280;26392;42.696;23.350;2023-08-06T05:39:21;94078.41;;;21.11;100.00
40708;BME280;26392;42.696;23.350;2023-08-06T05:41:47;94080.94;;;21.16;100.00
40708;BME280;26392;42.696;23.350;2023-08-06T05:44:12;94079.97;;;21.24;100.00
40708;BME280;26392;42.696;23.350;2023-08-06T05:46:37;94068.09;;;21.23;100.00
40708;BME280;26392;42.696;23.350;2023-08-06T05:49:03;94061.84;;;21.27;100.00
40708;BME280;26392;42.696;23.350;2023-08-06T05:51:29;94074.19;;;21.29;100.00
40708;BME280;26392;42.696;23.350;2023-08-06T05:53:54;94075.41;;;21.44;100.00
40708;BME280;26392;42.696;23.350;2023-08-06T05:56:19;94084.81;;;21.55;100.00
40708;BME280;26392;42.696;23.350;2023-08-06T05:58:45;94086.47;;;21.88;100.00
40708;BME280;26392;42.696;23.350;2023-08-06T06:01:12;94086.69;;;22.27;100.00
40708;BME280;26392;42.696;23.350;2023-08-06T06:03:38;94088.09;;;22.37;100.00
40708;BME280;26392;42.696;23.350;2023-08-06T06:08:29;94099.25;;;22.56;100.00
40708;BME280;26392;42.696;23.350;2023-08-06T06:10:54;94105.53;;;22.53;100.00
40708;BME280;26392;42.696;23.350;2023-08-06T06:13:20;94099.38;;;22.44;100.00
40708;BME280;26392;42.696;23.350;2023-08-06T06:15:48;94094.63;;;22.28;100.00
40708;BME280;26392;42.696;23.350;2023-08-06T06:18:14;94113.16;;;22.40;100.00
40708;BME280;26392;42.696;23.350;2023-08-06T06:20:41;94113.06;;;22.52;100.00
40708;BME280;26392;42.696;23.350;2023-08-06T06:25:32;94117.63;;;22.29;100.00
40708;BME280;26392;42.696;23.350;2023-08-06T06:28:00;94129.44;;;22.26;100.00
40708;BME280;26392;42.696;23.350;2023-08-06T06:30:26;94127.31;;;22.19;100.00
40708;BME280;26392;42.696;23.350;2023-08-06T06:32:55;94138.63;;;22.14;100.00
40708;BME280;26392;42.696;23.350;2023-08-06T06:35:21;94130.94;;;22.07;100.00
40708;BME280;26392;42.696;23.350;2023-08-06T06:37:49;94139.69;;;22.09;100.00
40708;BME280;26392;42.696;23.350;2023-08-06T06:40:15;94142.94;;;22.11;100.00
40708;BME280;26392;42.696;23.350;2023-08-06T06:42:40;94148.91;;;21.98;100.00
40708;BME280;26392;42.696;23.350;2023-08-06T06:45:06;94148.66;;;22.03;100.00
40708;BME280;26392;42.696;23.350;2023-08-06T06:47:32;94147.84;;;22.02;100.00
40708;BME280;26392;42.696;23.350;2023-08-06T06:49:57;94148.56;;;21.99;100.00
40708;BME280;26392;42.696;23.350;2023-08-06T06:52:23;94165.91;;;22.12;100.00
40708;BME280;26392;42.696;23.350;2023-08-06T06:54:48;94167.91;;;22.43;100.00
40708;BME280;26392;42.696;23.350;2023-08-06T06:57:13;94173.66;;;22.50;100.00
40708;BME280;26392;42.696;23.350;2023-08-06T06:59:39;94167.03;;;22.39;100.00
40708;BME280;26392;42.696;23.350;2023-08-06T07:02:05;94177.41;;;22.42;100.00
40708;BME280;26392;42.696;23.350;2023-08-06T07:04:30;94177.44;;;22.58;100.00
40708;BME280;26392;42.696;23.350;2023-08-06T07:06:56;94177.69;;;22.69;100.00
40708;BME280;26392;42.696;23.350;2023-08-06T07:09:21;94184.31;;;22.80;100.00
40708;BME280;26392;42.696;23.350;2023-08-06T07:11:47;94181.22;;;22.85;100.00
40708;BME280;26392;42.696;23.350;2023-08-06T07:14:12;94180.78;;;22.99;100.00
40708;BME280;26392;42.696;23.350;2023-08-06T07:16:39;94182.94;;;23.06;100.00
40708;BME280;26392;42.696;23.350;2023-08-06T07:19:05;94181.50;;;23.12;100.00
40708;BME280;26392;42.696;23.350;2023-08-06T07:21:31;94185.72;;;23.06;100.00
40708;BME280;26392;42.696;23.350;2023-08-06T07:23:56;94188.03;;;22.88;100.00
40708;BME280;26392;42.696;23.350;2023-08-06T07:26:22;94193.25;;;22.73;100.00
40708;BME280;26392;42.696;23.350;2023-08-06T07:28:47;94186.63;;;22.78;100.00
40708;BME280;26392;42.696;23.350;2023-08-06T07:31:13;94190.84;;;22.72;100.00
40708;BME280;26392;42.696;23.350;2023-08-06T07:33:38;94193.53;;;22.68;100.00
40708;BME280;26392;42.696;23.350;2023-08-06T07:36:14;94191.56;;;22.69;100.00
40708;BME280;26392;42.696;23.350;2023-08-06T07:38:40;94191.72;;;22.76;100.00
40708;BME280;26392;42.696;23.350;2023-08-06T07:41:06;94188.50;;;23.06;100.00
40708;BME280;26392;42.696;23.350;2023-08-06T07:43:32;94184.31;;;23.31;100.00
40708;BME280;26392;42.696;23.350;2023-08-06T07:45:58;94184.25;;;23.66;100.00
40708;BME280;26392;42.696;23.350;2023-08-06T07:48:24;94185.75;;;23.80;100.00
40708;BME280;26392;42.696;23.350;2023-08-06T07:50:54;94182.28;;;24.06;100.00
40708;BME280;26392;42.696;23.350;2023-08-06T07:53:24;94183.72;;;24.19;100.00
40708;BME280;26392;42.696;23.350;2023-08-06T07:55:53;94194.78;;;24.16;100.00
40708;BME280;26392;42.696;23.350;2023-08-06T07:58:20;94183.69;;;23.96;100.00
40708;BME280;26392;42.696;23.350;2023-08-06T08:00:46;94192.31;;;23.72;100.00
40708;BME280;26392;42.696;23.350;2023-08-06T08:03:12;94190.72;;;23.71;100.00
40708;BME280;26392;42.696;23.350;2023-08-06T08:05:44;94179.78;;;23.62;100.00
40708;BME280;26392;42.696;23.350;2023-08-06T08:08:10;94183.94;;;23.52;100.00
40708;BME280;26392;42.696;23.350;2023-08-06T08:10:36;94170.25;;;23.43;100.00
40708;BME280;26392;42.696;23.350;2023-08-06T08:13:03;94173.50;;;23.45;100.00
40708;BME280;26392;42.696;23.350;2023-08-06T08:15:30;94178.16;;;23.61;100.00
40708;BME280;26392;42.696;23.350;2023-08-06T08:17:55;94179.03;;;23.81;100.00
40708;BME280;26392;42.696;23.350;2023-08-06T08:20:21;94176.59;;;23.79;100.00
40708;BME280;26392;42.696;23.350;2023-08-06T08:22:47;94186.16;;;23.62;100.00
40708;BME280;26392;42.696;23.350;2023-08-06T08:25:13;94187.91;;;23.51;100.00
40708;BME280;26392;42.696;23.350;2023-08-06T08:27:38;94188.13;;;23.62;100.00
40708;BME280;26392;42.696;23.350;2023-08-06T08:30:04;94185.38;;;23.81;100.00
40708;BME280;26392;42.696;23.350;2023-08-06T08:32:30;94175.84;;;23.82;100.00
40708;BME280;26392;42.696;23.350;2023-08-06T08:34:55;94177.47;;;23.83;100.00
40708;BME280;26392;42.696;23.350;2023-08-06T08:37:21;94177.13;;;24.08;100.00
40708;BME280;26392;42.696;23.350;2023-08-06T08:39:46;94171.19;;;24.29;100.00
40708;BME280;26392;42.696;23.350;2023-08-06T08:42:12;94167.03;;;24.42;100.00
40708;BME280;26392;42.696;23.350;2023-08-06T08:44:39;94164.84;;;24.51;100.00
40708;BME280;26392;42.696;23.350;2023-08-06T08:47:10;94166.38;;;24.49;100.00
40708;BME280;26392;42.696;23.350;2023-08-06T08:49:36;94163.09;;;24.43;100.00
40708;BME280;26392;42.696;23.350;2023-08-06T08:52:03;94164.78;;;24.48;97.92
40708;BME280;26392;42.696;23.350;2023-08-06T08:54:33;94168.72;;;24.47;100.00
40708;BME280;26392;42.696;23.350;2023-08-06T08:56:59;94160.59;;;24.15;99.76
40708;BME280;26392;42.696;23.350;2023-08-06T08:59:26;94153.84;;;24.16;100.00
40708;BME280;26392;42.696;23.350;2023-08-06T09:01:53;94150.75;;;24.21;100.00
40708;BME280;26392;42.696;23.350;2023-08-06T09:04:20;94148.63;;;24.34;100.00
40708;BME280;26392;42.696;23.350;2023-08-06T09:06:47;94146.03;;;24.45;99.78
40708;BME280;26392;42.696;23.350;2023-08-06T09:09:34;94137.81;;;24.52;98.16
40708;BME280;26392;42.696;23.350;2023-08-06T09:12:12;94141.56;;;24.63;99.38
40708;BME280;26392;42.696;23.350;2023-08-06T09:14:39;94140.06;;;24.69;95.63
40708;BME280;26392;42.696;23.350;2023-08-06T09:17:04;94132.25;;;24.78;95.65
40708;BME280;26392;42.696;23.350;2023-08-06T09:19:31;94135.94;;;24.86;94.27
40708;BME280;26392;42.696;23.350;2023-08-06T09:21:57;94133.22;;;24.90;96.95
40708;BME280;26392;42.696;23.350;2023-08-06T09:24:22;94131.03;;;25.02;95.22
40708;BME280;26392;42.696;23.350;2023-08-06T09:26:48;94141.19;;;24.91;91.63
40708;BME280;26392;42.696;23.350;2023-08-06T09:29:14;94122.81;;;24.87;94.33
40708;BME280;26392;42.696;23.350;2023-08-06T09:31:44;94123.31;;;24.92;90.56
40708;BME280;26392;42.696;23.350;2023-08-06T09:34:17;94116.28;;;25.02;86.23
40708;BME280;26392;42.696;23.350;2023-08-06T09:36:46;94116.34;;;25.06;87.49
40708;BME280;26392;42.696;23.350;2023-08-06T09:39:16;94108.72;;;25.02;83.17
40708;BME280;26392;42.696;23.350;2023-08-06T09:41:42;94110.72;;;25.02;87.29
40708;BME280;26392;42.696;23.350;2023-08-06T09:44:19;94109.06;;;24.97;84.56
40708;BME280;26392;42.696;23.350;2023-08-06T09:46:49;94106.00;;;25.06;85.79
40708;BME280;26392;42.696;23.350;2023-08-06T09:49:15;94114.09;;;25.15;80.97
40708;BME280;26392;42.696;23.350;2023-08-06T09:51:41;94105.38;;;25.16;81.50
40708;BME280;26392;42.696;23.350;2023-08-06T09:54:07;94113.16;;;25.34;77.15
40708;BME280;26392;42.696;23.350;2023-08-06T09:56:34;94125.34;;;25.52;81.37
40708;BME280;26392;42.696;23.350;2023-08-06T09:59:04;94119.06;;;25.59;72.54
40708;BME280;26392;42.696;23.350;2023-08-06T10:01:32;94113.97;;;25.68;71.39
40708;BME280;26392;42.696;23.350;2023-08-06T10:03:59;94119.75;;;25.82;70.31
40708;BME280;26392;42.696;23.350;2023-08-06T10:06:26;94105.97;;;25.97;69.24
40708;BME280;26392;42.696;23.350;2023-08-06T10:08:51;94122.41;;;26.05;68.00
40708;BME280;26392;42.696;23.350;2023-08-06T10:11:17;94115.06;;;25.90;66.08
40708;BME280;26392;42.696;23.350;2023-08-06T10:13:44;94134.41;;;25.79;65.88
40708;BME280;26392;42.696;23.350;2023-08-06T10:16:10;94138.16;;;25.90;65.64
40708;BME280;26392;42.696;23.350;2023-08-06T10:18:37;94122.75;;;26.00;66.21
